LEAB/ABC METAR and TAF weather

Enter ICAO airport designator
Station Type Date Time Source
LEAB METAR 2020/08/15 16:00 UTC NOAA

LEAB 151600Z 31015KT CAVOK 32/03 Q1014 NOSIG


Station Type Date Time Source
LEAB Decoded METAR 2020/08/15 16:00 UTC NOAA

Albacete / Los Llanos, Spain (LEAB) 38-57N 001-51W 704M
Aug 15, 2020 - 12:00 PM EDT / 2020.08.15 1600 UTC
Wind: from the NW (310 degrees) at 17 MPH (15 KT):0
Visibility: greater than 7 mile(s):0
Temperature: 89 F (32 C)
Dew Point: 37 F (3 C)
Relative Humidity: 15%
Pressure (altimeter): 29.94 in. Hg (1014 hPa)
ob: LEAB 151600Z 31015KT CAVOK 32/03 Q1014 NOSIG
cycle: 16

Station Type Date Time Source
LEAB TAF 2020/08/15 12:27 UTC NOAA

TAF LEAB 151100Z 1512/1612 27010KT CAVOK TX33/1516Z TN14/1606Z PROB40
TEMPO 1523/1608 VRB05KT

Example: see airport list